createdAt,value
2019-01-28T00:02:23.193Z,81.74
2019-01-28T00:04:55.025Z,81.55
2019-01-28T00:07:27.942Z,81.04
2019-01-28T00:09:59.751Z,80.98
2019-01-28T00:12:31.585Z,80.71
2019-01-28T00:15:03.422Z,80.89
2019-01-28T00:17:36.876Z,80.52
2019-01-28T00:20:09.114Z,80.51
2019-01-28T00:22:40.949Z,80.58
2019-01-28T00:25:12.741Z,80.33
2019-01-28T00:27:44.564Z,80.62
2019-01-28T00:30:16.588Z,80.61
2019-01-28T00:32:48.421Z,80.48
2019-01-28T00:35:20.275Z,79.77
2019-01-28T00:37:52.102Z,79.95
2019-01-28T00:40:23.918Z,79.20
2019-01-28T00:42:55.724Z,80.11
2019-01-28T00:45:27.562Z,80.71
2019-01-28T00:47:59.363Z,80.90
2019-01-28T00:50:31.225Z,80.70
2019-01-28T00:53:03.421Z,80.85
2019-01-28T00:55:35.264Z,80.81
2019-01-28T00:58:07.098Z,81.24
2019-01-28T01:00:40.867Z,80.88
2019-01-28T01:03:12.677Z,80.67
2019-01-28T01:05:44.507Z,80.64
2019-01-28T01:08:16.328Z,80.40
2019-01-28T01:10:48.158Z,80.51
2019-01-28T01:13:19.953Z,80.58
2019-01-28T01:15:53.317Z,80.72
2019-01-28T01:18:25.125Z,80.73
2019-01-28T01:20:56.938Z,80.59
2019-01-28T01:23:28.768Z,80.25
2019-01-28T01:26:03.588Z,80.35
2019-01-28T01:28:35.391Z,79.98
2019-01-28T01:31:09.542Z,80.19
2019-01-28T01:33:43.677Z,79.83
2019-01-28T01:36:15.480Z,79.85
2019-01-28T01:38:47.307Z,79.40
2019-01-28T01:41:19.118Z,79.75
2019-01-28T01:43:50.958Z,79.89
2019-01-28T01:46:22.770Z,79.98
2019-01-28T01:48:54.609Z,80.01
2019-01-28T01:51:26.404Z,80.05
2019-01-28T01:53:58.220Z,80.40
2019-01-28T01:56:30.037Z,80.50
2019-01-28T01:59:01.870Z,80.59
2019-01-28T02:01:33.666Z,80.48
2019-01-28T02:04:05.621Z,80.61
2019-01-28T02:06:42.060Z,80.81
2019-01-28T02:09:13.889Z,80.86
2019-01-28T02:11:45.682Z,80.81
2019-01-28T02:14:18.290Z,80.92
2019-01-28T02:16:50.127Z,80.86
2019-01-28T02:19:21.922Z,80.63
2019-01-28T02:21:53.743Z,80.41
2019-01-28T02:24:25.735Z,80.20
2019-01-28T02:26:57.657Z,79.90
2019-01-28T02:29:29.474Z,79.60
2019-01-28T02:32:01.287Z,79.29
2019-01-28T02:34:33.184Z,79.09
2019-01-28T02:37:04.994Z,79.04
2019-01-28T02:39:36.858Z,78.82
2019-01-28T02:42:08.688Z,78.57
2019-01-28T02:44:41.573Z,78.47
2019-01-28T02:47:13.803Z,78.30
2019-01-28T02:49:47.154Z,78.06
2019-01-28T02:52:19.000Z,77.78
2019-01-28T02:54:50.789Z,77.56
2019-01-28T02:57:22.704Z,77.43
2019-01-28T02:59:54.509Z,77.13
2019-01-28T03:02:26.342Z,77.16
2019-01-28T03:05:00.606Z,77.20
2019-01-28T03:07:32.407Z,77.21
2019-01-28T03:10:04.689Z,76.75
2019-01-28T03:12:36.512Z,76.90
2019-01-28T03:15:10.286Z,76.96
2019-01-28T03:17:42.217Z,77.01
2019-01-28T03:20:14.883Z,76.83
2019-01-28T03:22:46.742Z,76.94
2019-01-28T03:25:24.193Z,77.02
2019-01-28T03:27:55.949Z,76.89
2019-01-28T03:30:27.784Z,76.72
2019-01-28T03:32:59.581Z,76.68
2019-01-28T03:35:31.403Z,76.64
2019-01-28T03:38:03.212Z,76.51
2019-01-28T03:40:35.041Z,76.29
2019-01-28T03:43:06.840Z,76.33
2019-01-28T03:45:38.665Z,76.52
2019-01-28T03:48:10.470Z,76.42
2019-01-28T03:50:42.359Z,76.48
2019-01-28T03:53:14.621Z,76.42
2019-01-28T03:55:46.458Z,76.28
2019-01-28T03:58:20.636Z,77.07
2019-01-28T04:00:52.432Z,77.26
2019-01-28T04:03:25.824Z,77.29
2019-01-28T04:05:57.643Z,77.08
2019-01-28T04:08:32.287Z,76.91
2019-01-28T04:11:04.174Z,76.55
2019-01-28T04:13:36.082Z,76.41
2019-01-28T04:16:07.876Z,76.28
2019-01-28T04:18:39.698Z,76.03
2019-01-28T04:21:11.491Z,75.95
2019-01-28T04:23:45.431Z,75.61
2019-01-28T04:26:16.993Z,75.49
2019-01-28T04:28:48.830Z,74.92
2019-01-28T04:31:20.633Z,75.14
2019-01-28T04:33:52.458Z,74.50
2019-01-28T04:36:24.260Z,74.65
2019-01-28T04:38:56.248Z,74.40
2019-01-28T04:41:28.057Z,74.10
2019-01-28T04:43:59.878Z,74.13
2019-01-28T04:46:31.683Z,74.14
2019-01-28T04:49:03.496Z,74.00
2019-01-28T04:51:35.329Z,73.81
2019-01-28T04:54:07.259Z,73.77
2019-01-28T04:56:41.622Z,74.34
2019-01-28T04:59:13.455Z,74.42
2019-01-28T05:01:45.270Z,74.50
2019-01-28T05:04:17.097Z,74.89
2019-01-28T05:06:48.916Z,75.24
2019-01-28T05:09:20.731Z,75.79
2019-01-28T05:11:52.538Z,75.91
2019-01-28T05:14:24.329Z,75.96
2019-01-28T05:16:56.183Z,76.51
2019-01-28T05:19:27.982Z,77.10
2019-01-28T05:21:59.810Z,77.85
2019-01-28T05:24:31.633Z,78.30
2019-01-28T05:27:03.449Z,78.62
2019-01-28T05:29:35.267Z,78.93
2019-01-28T05:32:07.356Z,79.29
2019-01-28T05:34:39.181Z,79.29
2019-01-28T05:37:11.786Z,79.58
2019-01-28T05:39:43.601Z,79.62
2019-01-28T05:42:18.408Z,79.69
2019-01-28T05:44:52.956Z,79.79
2019-01-28T05:47:24.784Z,79.57
2019-01-28T05:49:56.604Z,79.12
2019-01-28T05:52:28.414Z,79.46
2019-01-28T05:55:00.260Z,79.53
2019-01-28T05:57:32.044Z,79.40
2019-01-28T06:00:04.166Z,79.28
2019-01-28T06:02:38.791Z,79.18
2019-01-28T06:05:10.875Z,79.61
2019-01-28T06:07:42.677Z,79.72
2019-01-28T06:10:15.083Z,79.68
2019-01-28T06:12:48.412Z,79.71
2019-01-28T06:15:20.483Z,79.99
2019-01-28T06:17:52.278Z,80.27
2019-01-28T06:20:24.652Z,80.21
2019-01-28T06:22:58.093Z,80.20
2019-01-28T06:25:29.956Z,80.42
2019-01-28T06:28:01.781Z,80.14
2019-01-28T06:30:33.921Z,80.01
2019-01-28T06:33:05.791Z,80.23
2019-01-28T06:35:37.594Z,80.40
2019-01-28T06:38:09.406Z,80.58
2019-01-28T06:40:41.211Z,80.60
2019-01-28T06:43:13.050Z,80.69
2019-01-28T06:45:44.847Z,81.12
2019-01-28T06:48:16.681Z,81.43
2019-01-28T06:50:48.494Z,81.77
2019-01-28T06:53:20.490Z,82.78
2019-01-28T06:55:52.309Z,83.25
2019-01-28T06:58:24.141Z,83.33
2019-01-28T07:00:55.939Z,83.50
2019-01-28T07:03:27.763Z,83.94
2019-01-28T07:05:59.592Z,83.97
2019-01-28T07:08:31.418Z,83.94
2019-01-28T07:11:03.239Z,83.75
2019-01-28T07:13:35.063Z,83.63
2019-01-28T07:16:06.964Z,83.74
2019-01-28T07:18:38.792Z,83.31
2019-01-28T07:21:10.625Z,83.02
2019-01-28T07:23:42.442Z,82.78
2019-01-28T07:26:14.274Z,82.81
2019-01-28T07:28:47.161Z,82.86
2019-01-28T07:31:18.997Z,82.65
2019-01-28T07:33:50.821Z,82.75
2019-01-28T07:36:22.806Z,82.58
2019-01-28T07:38:54.639Z,82.65
2019-01-28T07:41:29.430Z,82.63
2019-01-28T07:44:02.302Z,82.65
2019-01-28T07:46:34.111Z,83.21
2019-01-28T07:49:05.951Z,83.48
2019-01-28T07:51:41.050Z,83.48
2019-01-28T07:54:12.885Z,83.30
2019-01-28T07:56:44.758Z,83.28
2019-01-28T07:59:16.671Z,83.49
2019-01-28T08:01:48.429Z,83.30
2019-01-28T08:04:20.237Z,82.98
2019-01-28T08:06:59.369Z,83.16
2019-01-28T08:09:25.623Z,82.84
2019-01-28T08:11:57.421Z,83.15
2019-01-28T08:14:31.082Z,82.66
2019-01-28T08:17:05.010Z,82.69
2019-01-28T08:19:36.910Z,82.56
2019-01-28T08:22:12.497Z,83.08
2019-01-28T08:24:47.536Z,83.16
2019-01-28T08:27:24.880Z,83.43
2019-01-28T08:30:04.123Z,83.63
2019-01-28T08:32:37.126Z,83.97
2019-01-28T08:35:09.570Z,84.31
2019-01-28T08:37:43.052Z,83.65
2019-01-28T08:40:15.348Z,83.86
2019-01-28T08:42:50.260Z,83.95
2019-01-28T08:45:20.729Z,84.13
2019-01-28T08:47:55.058Z,84.48
2019-01-28T08:50:30.007Z,84.19
2019-01-28T08:53:04.966Z,84.22
2019-01-28T08:55:39.847Z,83.91
2019-01-28T08:58:15.055Z,84.11
2019-01-28T09:00:46.881Z,84.28
2019-01-28T09:03:18.781Z,83.72
2019-01-28T09:05:50.668Z,84.26
2019-01-28T09:08:24.081Z,83.73
2019-01-28T09:11:00.609Z,83.53
2019-01-28T09:13:32.475Z,83.63
2019-01-28T09:16:08.285Z,83.43
2019-01-28T09:18:40.200Z,83.49
2019-01-28T09:21:12.018Z,83.94
2019-01-28T09:23:43.854Z,84.01
2019-01-28T09:26:17.163Z,84.38
2019-01-28T09:28:50.266Z,84.65
2019-01-28T09:31:22.214Z,84.69
2019-01-28T09:33:56.406Z,83.98
2019-01-28T09:36:30.577Z,84.06
2019-01-28T09:39:04.057Z,83.95
2019-01-28T09:41:36.941Z,84.21
2019-01-28T09:44:08.962Z,84.43
2019-01-28T09:46:42.445Z,84.21
2019-01-28T09:49:16.092Z,84.07
2019-01-28T09:51:49.423Z,84.32
2019-01-28T09:54:21.277Z,84.10
2019-01-28T09:56:55.843Z,83.53
2019-01-28T09:59:35.226Z,83.20
2019-01-28T10:02:09.053Z,83.02
2019-01-28T10:04:42.198Z,83.04
2019-01-28T10:07:14.046Z,82.96
2019-01-28T10:09:45.854Z,83.08
2019-01-28T10:12:17.897Z,82.47
2019-01-28T10:14:53.474Z,82.39
2019-01-28T10:17:25.269Z,82.20
2019-01-28T10:19:57.083Z,81.40
2019-01-28T10:22:28.996Z,81.82
2019-01-28T10:25:02.791Z,82.04
2019-01-28T10:27:41.672Z,81.88
2019-01-28T10:30:17.654Z,82.19
2019-01-28T10:32:49.497Z,82.23
2019-01-28T10:35:23.872Z,82.12
2019-01-28T10:38:01.978Z,82.12
2019-01-28T10:40:38.436Z,81.83
2019-01-28T10:43:11.123Z,81.77
2019-01-28T10:45:43.929Z,81.84
2019-01-28T10:48:15.748Z,82.29
2019-01-28T10:50:47.743Z,81.94
2019-01-28T10:53:19.639Z,82.21
2019-01-28T10:55:52.606Z,82.75
2019-01-28T10:58:24.416Z,83.12
2019-01-28T11:00:56.346Z,83.71
2019-01-28T11:03:29.821Z,84.26
2019-01-28T11:06:03.767Z,84.00
2019-01-28T11:08:35.605Z,84.54
2019-01-28T11:11:42.468Z,84.37
2019-01-28T11:14:14.461Z,84.24
2019-01-28T11:16:49.382Z,84.30
2019-01-28T11:19:21.399Z,84.25
2019-01-28T11:21:53.243Z,84.20
2019-01-28T11:24:30.079Z,83.96
2019-01-28T11:27:03.038Z,84.12
2019-01-28T11:29:39.274Z,84.44
2019-01-28T11:32:11.079Z,84.11
2019-01-28T11:34:50.763Z,84.39
2019-01-28T11:37:22.672Z,84.36
2019-01-28T11:39:57.635Z,84.04
2019-01-28T11:42:31.409Z,84.27
2019-01-28T11:45:24.867Z,84.59
2019-01-28T11:47:59.133Z,84.61
2019-01-28T11:50:31.013Z,84.75
2019-01-28T11:53:02.877Z,84.42
2019-01-28T11:55:34.682Z,84.57
2019-01-28T11:58:06.958Z,84.77
2019-01-28T12:01:01.084Z,84.44
2019-01-28T12:03:33.025Z,85.45
2019-01-28T12:06:06.419Z,84.94
2019-01-28T12:24:28.077Z,85.11
2019-01-28T12:27:04.404Z,85.13
2019-01-28T12:29:38.648Z,85.27
2019-01-28T12:32:12.557Z,85.02
2019-01-28T12:34:44.424Z,84.98
2019-01-28T12:37:17.830Z,85.18
2019-01-28T12:43:48.172Z,85.06
2019-01-28T12:46:30.974Z,85.16
2019-01-28T12:51:58.802Z,85.36
2019-01-28T12:55:03.366Z,85.50
2019-01-28T12:57:41.135Z,86.19
2019-01-28T13:00:30.015Z,86.65
2019-01-28T13:04:05.879Z,86.93
2019-01-28T13:06:40.579Z,86.52
2019-01-28T13:09:33.593Z,86.14
2019-01-28T13:14:57.785Z,86.49
2019-01-28T13:17:41.222Z,86.46
2019-01-28T13:20:21.452Z,86.20
2019-01-28T13:23:04.918Z,86.29
2019-01-28T13:25:39.882Z,86.18
2019-01-28T13:28:19.772Z,86.25
2019-01-28T13:30:57.151Z,86.21
2019-01-28T13:33:31.318Z,85.74
2019-01-28T13:39:05.015Z,85.63
2019-01-28T13:41:52.892Z,85.46
2019-01-28T13:44:46.793Z,85.20
2019-01-28T13:48:12.825Z,85.10
2019-01-28T13:50:25.041Z,85.54
2019-01-28T14:00:27.445Z,85.07
2019-01-28T14:03:03.846Z,84.52
2019-01-28T14:05:38.799Z,84.57
2019-01-28T14:08:13.590Z,84.63
2019-01-28T14:10:53.989Z,84.34
2019-01-28T14:13:25.816Z,84.29
2019-01-28T14:15:57.739Z,84.41
2019-01-28T14:18:29.567Z,84.27
2019-01-28T14:21:05.576Z,84.02
2019-01-28T14:23:37.396Z,83.71
2019-01-28T14:26:09.237Z,83.40
2019-01-28T14:28:41.130Z,83.40
2019-01-28T14:31:14.137Z,83.54
2019-01-28T14:33:45.994Z,83.72
2019-01-28T14:36:17.850Z,83.58
2019-01-28T14:38:49.672Z,83.38
2019-01-28T14:41:21.553Z,83.29
2019-01-28T14:43:54.359Z,83.26
2019-01-28T14:46:26.240Z,83.43
2019-01-28T14:48:58.286Z,83.09
2019-01-28T14:51:30.815Z,83.23
2019-01-28T14:54:02.670Z,83.13
2019-01-28T14:56:34.705Z,83.00
2019-01-28T14:59:07.095Z,82.91
2019-01-28T15:01:38.925Z,82.59
2019-01-28T15:04:12.850Z,82.58
2019-01-28T15:06:44.714Z,82.59
2019-01-28T15:09:16.660Z,82.40
2019-01-28T15:11:48.596Z,82.39
2019-01-28T15:14:21.485Z,82.61
2019-01-28T15:16:53.324Z,83.36
2019-01-28T15:19:25.238Z,83.28
2019-01-28T15:21:57.097Z,83.46
2019-01-28T15:24:28.945Z,83.32
2019-01-28T15:27:00.792Z,83.45
2019-01-28T15:29:32.715Z,83.62
2019-01-28T15:32:04.605Z,83.39
2019-01-28T15:34:36.491Z,83.50
2019-01-28T15:37:08.404Z,83.68
2019-01-28T15:39:40.255Z,83.65
2019-01-28T15:42:14.600Z,83.57
2019-01-28T15:44:46.438Z,83.74
2019-01-28T15:47:18.328Z,84.01
2019-01-28T15:49:50.284Z,83.65
2019-01-28T15:52:22.145Z,83.74
2019-01-28T15:54:53.994Z,83.67
2019-01-28T15:57:25.888Z,83.58
2019-01-28T15:59:57.809Z,83.64
2019-01-28T16:02:29.698Z,83.31
2019-01-28T16:05:03.387Z,83.51
2019-01-28T16:07:38.191Z,83.27
2019-01-28T16:10:18.390Z,83.41
2019-01-28T16:12:52.797Z,83.46
2019-01-28T16:15:29.078Z,83.07
2019-01-28T16:18:00.976Z,83.18
2019-01-28T16:20:35.434Z,83.25
2019-01-28T16:23:10.874Z,83.28
2019-01-28T16:25:42.738Z,83.42
2019-01-28T16:28:14.630Z,83.58
2019-01-28T16:30:46.536Z,83.64
2019-01-28T16:33:20.010Z,83.65
2019-01-28T16:35:51.953Z,83.77
2019-01-28T16:38:23.860Z,83.98
2019-01-28T16:40:55.724Z,83.96
2019-01-28T16:43:28.809Z,83.98
2019-01-28T16:47:13.375Z,84.10
2019-01-28T16:49:48.631Z,84.00
2019-01-28T16:52:20.630Z,84.41
2019-01-28T16:54:53.566Z,84.22
2019-01-28T16:57:26.996Z,84.46
2019-01-28T16:59:58.879Z,84.49
2019-01-28T17:02:30.695Z,84.59
2019-01-28T17:05:03.660Z,84.41
2019-01-28T17:07:38.566Z,84.24
2019-01-28T17:10:11.346Z,84.24
2019-01-28T17:12:43.175Z,84.54
2019-01-28T17:15:16.458Z,84.65
2019-01-28T17:17:48.334Z,84.69
2019-01-28T17:20:25.837Z,84.67
2019-01-28T17:22:57.993Z,84.64
2019-01-28T17:25:36.706Z,84.59
2019-01-28T17:28:10.837Z,84.62
2019-01-28T17:30:45.760Z,84.94
2019-01-28T17:33:18.540Z,85.17
2019-01-28T17:35:50.272Z,85.24
2019-01-28T17:38:22.093Z,84.90
2019-01-28T17:40:53.942Z,85.07
2019-01-28T17:43:25.906Z,85.24
2019-01-28T17:45:59.816Z,84.91
2019-01-28T17:48:33.188Z,85.36
2019-01-28T17:51:08.083Z,85.61
2019-01-28T17:53:40.925Z,85.65
2019-01-28T17:56:12.768Z,85.55
2019-01-28T17:58:44.666Z,85.58
2019-01-28T18:01:16.686Z,85.53
2019-01-28T18:03:48.553Z,85.67
2019-01-28T18:06:20.404Z,85.76
2019-01-28T18:08:54.754Z,85.68
2019-01-28T18:11:26.709Z,85.55
2019-01-28T18:14:01.609Z,85.22
2019-01-28T18:16:37.649Z,85.49
2019-01-28T18:19:09.565Z,85.55
2019-01-28T18:21:41.440Z,85.49
2019-01-28T18:24:13.339Z,85.68
2019-01-28T18:26:51.347Z,85.65
2019-01-28T18:29:26.293Z,85.83
2019-01-28T18:32:02.280Z,86.04
2019-01-28T18:34:35.458Z,86.33
2019-01-28T18:37:10.369Z,86.09
2019-01-28T18:39:44.689Z,85.85
2019-01-28T18:42:27.116Z,85.63
2019-01-28T18:45:03.301Z,85.88
2019-01-28T18:47:35.204Z,86.11
2019-01-28T18:50:17.083Z,86.08
2019-01-28T18:52:51.870Z,85.84
2019-01-28T18:55:25.656Z,85.57
2019-01-28T18:57:58.236Z,85.42
2019-01-28T19:00:33.286Z,85.61
2019-01-28T19:03:13.232Z,85.31
2019-01-28T19:06:17.921Z,85.45
2019-01-28T19:09:18.880Z,85.66
2019-01-28T19:12:05.077Z,85.47
2019-01-28T19:14:57.926Z,85.72
2019-01-28T19:17:58.331Z,85.71
2019-01-28T19:20:53.953Z,85.65
2019-01-28T19:23:26.219Z,85.76
2019-01-28T19:25:58.101Z,85.46
2019-01-28T19:28:35.420Z,85.70
2019-01-28T19:31:16.409Z,85.75
2019-01-28T19:33:58.373Z,85.58
2019-01-28T19:36:24.129Z,85.72
2019-01-28T19:38:56.014Z,85.73
2019-01-28T19:41:31.046Z,85.66
2019-01-28T19:44:08.311Z,85.73
2019-01-28T19:46:41.828Z,85.81
2019-01-28T19:49:13.753Z,85.68
2019-01-28T19:51:45.791Z,85.58
2019-01-28T19:54:23.901Z,85.34
2019-01-28T19:56:55.926Z,85.18
2019-01-28T19:59:29.017Z,85.22
2019-01-28T20:02:07.697Z,85.29
2019-01-28T20:04:50.178Z,85.18
2019-01-28T20:07:37.207Z,85.14
2019-01-28T20:10:09.646Z,85.02
2019-01-28T20:12:43.218Z,84.62
2019-01-28T20:15:20.484Z,84.73
2019-01-28T20:17:52.474Z,84.77
2019-01-28T20:20:24.339Z,84.44
2019-01-28T20:22:59.142Z,84.35
2019-01-28T20:25:35.625Z,84.22
2019-01-28T20:28:07.704Z,84.06
2019-01-28T20:30:41.907Z,84.05
2019-01-28T20:33:13.823Z,83.89
2019-01-28T20:35:48.748Z,83.59
2019-01-28T20:38:24.246Z,83.61
2019-01-28T20:40:56.131Z,83.46
2019-01-28T20:43:29.594Z,83.41
2019-01-28T20:46:04.771Z,83.19
2019-01-28T20:48:36.807Z,83.03
2019-01-28T20:51:13.864Z,82.83
2019-01-28T20:53:45.767Z,82.77
2019-01-28T20:56:19.729Z,82.61
2019-01-28T20:58:51.567Z,82.79
2019-01-28T21:01:26.036Z,82.76
2019-01-28T21:03:57.895Z,82.54
2019-01-28T21:06:31.415Z,82.17
2019-01-28T21:09:04.842Z,82.11
2019-01-28T21:11:37.358Z,81.95
2019-01-28T21:14:09.219Z,82.20
2019-01-28T21:16:45.841Z,81.86
2019-01-28T21:19:17.733Z,81.89
2019-01-28T21:21:49.623Z,81.96
2019-01-28T21:24:21.900Z,82.06
2019-01-28T21:26:53.785Z,81.80
2019-01-28T21:29:28.944Z,82.01
2019-01-28T21:32:04.947Z,81.88
2019-01-28T21:34:41.782Z,81.83
2019-01-28T21:37:29.927Z,81.59
2019-01-28T21:40:04.559Z,81.52
2019-01-28T21:42:39.472Z,81.43
2019-01-28T21:45:15.893Z,81.21
2019-01-28T21:47:56.820Z,80.92
2019-01-28T21:50:31.202Z,81.24
2019-01-28T21:53:07.211Z,81.21
2019-01-28T21:55:41.814Z,81.18
2019-01-28T21:58:13.659Z,81.19
2019-01-28T22:00:45.604Z,80.94
2019-01-28T22:03:21.298Z,80.94
2019-01-28T22:05:52.243Z,80.91
2019-01-28T22:08:26.004Z,80.99
2019-01-28T22:11:00.775Z,81.27
2019-01-28T22:13:32.609Z,81.12
2019-01-28T22:16:04.543Z,80.95
2019-01-28T22:18:36.379Z,81.26
2019-01-28T22:21:15.066Z,81.32
2019-01-28T22:23:46.645Z,81.20
2019-01-28T22:26:21.411Z,81.07
2019-01-28T22:28:55.730Z,80.90
2019-01-28T22:31:30.513Z,81.17
2019-01-28T22:34:02.558Z,81.20
2019-01-28T22:36:40.828Z,81.13
2019-01-28T22:39:15.613Z,81.09
2019-01-28T22:41:47.576Z,81.30
2019-01-28T22:44:20.717Z,81.33
2019-01-28T22:46:55.019Z,81.38
2019-01-28T22:49:28.938Z,81.27
2019-01-28T22:52:07.776Z,81.41
2019-01-28T22:54:38.040Z,81.37
2019-01-28T22:57:11.252Z,81.40
2019-01-28T22:59:45.146Z,81.52
2019-01-28T23:02:18.211Z,81.59
2019-01-28T23:04:50.052Z,81.65
2019-01-28T23:07:21.912Z,81.68
2019-01-28T23:09:56.817Z,81.55
2019-01-28T23:12:29.985Z,81.53
2019-01-28T23:15:16.677Z,81.69
2019-01-28T23:17:50.578Z,81.78
2019-01-28T23:20:22.402Z,81.78
2019-01-28T23:22:54.278Z,81.69
2019-01-28T23:25:30.316Z,81.61
2019-01-28T23:28:03.456Z,81.66
2019-01-28T23:30:38.209Z,81.69
2019-01-28T23:33:10.508Z,81.65
2019-01-28T23:35:45.366Z,81.62
2019-01-28T23:38:17.204Z,81.57
2019-01-28T23:40:52.095Z,81.39
2019-01-28T23:43:23.941Z,81.37
2019-01-28T23:45:55.802Z,81.32
2019-01-28T23:48:32.137Z,81.23
2019-01-28T23:51:06.988Z,80.86
2019-01-28T23:53:41.777Z,80.94
2019-01-28T23:56:13.663Z,80.71
2019-01-28T23:58:49.876Z,80.24
